Terminal Aerodrome Forecast
Issued by NWS Melbourne, FL

Home | Current Version | Previous Version | Text Only | Print | Product List | Glossary On
Versions: 1 2 3 4 5 6 7 8 9 10 11 12 13 14 15 16
000
FTUS42 KMLB 251736
TAFDAB
TAF
KDAB 251736Z 2518/2618 07008KT P6SM SCT040 SCT300
     FM252200 13008KT P6SM SCT060 SCT300
     FM260000 18004KT P6SM FEW050 SCT300
     FM260300 23002KT P6SM FEW050 SCT300
     FM261400 24005KT P6SM SCT300=

USA.gov is the U.S. government's official web portal to all federal, state and local government web resources and services.